sensor_id;sensor_type;location;lat;lon;timestamp;pressure;altitude;pressure_sealevel;temperature
12007;BMP180;6062;47.294;12.182;2022-08-21T00:01:50;80740.00;;;14.00
12007;BMP180;6062;47.294;12.182;2022-08-21T00:04:15;80736.00;;;14.00
12007;BMP180;6062;47.294;12.182;2022-08-21T00:06:41;80733.00;;;14.00
12007;BMP180;6062;47.294;12.182;2022-08-21T00:09:08;80723.00;;;14.00
12007;BMP180;6062;47.294;12.182;2022-08-21T00:11:37;80732.00;;;14.00
12007;BMP180;6062;47.294;12.182;2022-08-21T00:14:08;80724.00;;;14.00
12007;BMP180;6062;47.294;12.182;2022-08-21T00:16:34;80724.00;;;14.00
12007;BMP180;6062;47.294;12.182;2022-08-21T00:19:00;80725.00;;;14.00
12007;BMP180;6062;47.294;12.182;2022-08-21T00:21:26;80728.00;;;14.00
12007;BMP180;6062;47.294;12.182;2022-08-21T00:23:52;80719.00;;;14.00
12007;BMP180;6062;47.294;12.182;2022-08-21T00:26:18;80717.00;;;14.00
12007;BMP180;6062;47.294;12.182;2022-08-21T00:28:44;80721.00;;;13.90
12007;BMP180;6062;47.294;12.182;2022-08-21T00:31:12;80714.00;;;13.90
12007;BMP180;6062;47.294;12.182;2022-08-21T00:33:38;80716.00;;;13.90
12007;BMP180;6062;47.294;12.182;2022-08-21T00:36:04;80703.00;;;13.90
12007;BMP180;6062;47.294;12.182;2022-08-21T00:38:29;80712.00;;;13.90
12007;BMP180;6062;47.294;12.182;2022-08-21T00:41:01;80704.00;;;13.90
12007;BMP180;6062;47.294;12.182;2022-08-21T00:43:32;80707.00;;;13.90
12007;BMP180;6062;47.294;12.182;2022-08-21T00:45:59;80705.00;;;13.90
12007;BMP180;6062;47.294;12.182;2022-08-21T00:48:26;80706.00;;;13.90
12007;BMP180;6062;47.294;12.182;2022-08-21T00:51:08;80706.00;;;13.90
12007;BMP180;6062;47.294;12.182;2022-08-21T00:53:39;80698.00;;;13.80
12007;BMP180;6062;47.294;12.182;2022-08-21T00:56:09;80712.00;;;13.80
12007;BMP180;6062;47.294;12.182;2022-08-21T00:58:37;80708.00;;;13.80
12007;BMP180;6062;47.294;12.182;2022-08-21T01:01:06;80704.00;;;13.80
12007;BMP180;6062;47.294;12.182;2022-08-21T01:03:34;80704.00;;;13.80
12007;BMP180;6062;47.294;12.182;2022-08-21T01:06:00;80704.00;;;13.80
12007;BMP180;6062;47.294;12.182;2022-08-21T01:08:27;80707.00;;;13.80
12007;BMP180;6062;47.294;12.182;2022-08-21T01:10:56;80697.00;;;13.70
12007;BMP180;6062;47.294;12.182;2022-08-21T01:13:23;80710.00;;;13.60
12007;BMP180;6062;47.294;12.182;2022-08-21T01:15:52;80707.00;;;13.60
12007;BMP180;6062;47.294;12.182;2022-08-21T01:18:20;80708.00;;;13.60
12007;BMP180;6062;47.294;12.182;2022-08-21T01:21:19;80697.00;;;13.60
12007;BMP180;6062;47.294;12.182;2022-08-21T01:23:50;80711.00;;;13.60
12007;BMP180;6062;47.294;12.182;2022-08-21T01:26:22;80715.00;;;13.60
12007;BMP180;6062;47.294;12.182;2022-08-21T01:29:00;80700.00;;;13.50
12007;BMP180;6062;47.294;12.182;2022-08-21T01:31:28;80711.00;;;13.50
12007;BMP180;6062;47.294;12.182;2022-08-21T01:33:56;80707.00;;;13.50
12007;BMP180;6062;47.294;12.182;2022-08-21T01:36:23;80696.00;;;13.50
12007;BMP180;6062;47.294;12.182;2022-08-21T01:38:49;80704.00;;;13.40
12007;BMP180;6062;47.294;12.182;2022-08-21T01:41:16;80704.00;;;13.40
12007;BMP180;6062;47.294;12.182;2022-08-21T01:43:43;80704.00;;;13.40
12007;BMP180;6062;47.294;12.182;2022-08-21T01:46:11;80698.00;;;13.40
12007;BMP180;6062;47.294;12.182;2022-08-21T01:48:37;80690.00;;;13.40
12007;BMP180;6062;47.294;12.182;2022-08-21T01:51:04;80700.00;;;13.50
12007;BMP180;6062;47.294;12.182;2022-08-21T01:53:31;80684.00;;;13.50
12007;BMP180;6062;47.294;12.182;2022-08-21T01:55:59;80691.00;;;13.50
12007;BMP180;6062;47.294;12.182;2022-08-21T01:58:25;80681.00;;;13.50
12007;BMP180;6062;47.294;12.182;2022-08-21T02:00:51;80686.00;;;13.60
12007;BMP180;6062;47.294;12.182;2022-08-21T02:03:17;80682.00;;;13.60
12007;BMP180;6062;47.294;12.182;2022-08-21T02:05:42;80683.00;;;13.70
12007;BMP180;6062;47.294;12.182;2022-08-21T02:08:08;80672.00;;;13.70
12007;BMP180;6062;47.294;12.182;2022-08-21T02:10:34;80677.00;;;13.80
12007;BMP180;6062;47.294;12.182;2022-08-21T02:13:00;80682.00;;;13.80
12007;BMP180;6062;47.294;12.182;2022-08-21T02:15:28;80664.00;;;13.80
12007;BMP180;6062;47.294;12.182;2022-08-21T02:17:58;80666.00;;;13.80
12007;BMP180;6062;47.294;12.182;2022-08-21T02:20:31;80681.00;;;13.80
12007;BMP180;6062;47.294;12.182;2022-08-21T02:22:57;80669.00;;;13.80
12007;BMP180;6062;47.294;12.182;2022-08-21T02:25:25;80676.00;;;13.80
12007;BMP180;6062;47.294;12.182;2022-08-21T02:27:51;80682.00;;;13.80
12007;BMP180;6062;47.294;12.182;2022-08-21T02:30:23;80674.00;;;13.80
12007;BMP180;6062;47.294;12.182;2022-08-21T02:32:49;80671.00;;;13.80
12007;BMP180;6062;47.294;12.182;2022-08-21T02:35:15;80680.00;;;13.80
12007;BMP180;6062;47.294;12.182;2022-08-21T02:37:52;80676.00;;;13.80
12007;BMP180;6062;47.294;12.182;2022-08-21T02:40:23;80666.00;;;13.80
12007;BMP180;6062;47.294;12.182;2022-08-21T02:42:49;80678.00;;;13.80
12007;BMP180;6062;47.294;12.182;2022-08-21T02:45:17;80672.00;;;13.80
12007;BMP180;6062;47.294;12.182;2022-08-21T02:47:57;80667.00;;;13.80
12007;BMP180;6062;47.294;12.182;2022-08-21T02:50:32;80680.00;;;13.70
12007;BMP180;6062;47.294;12.182;2022-08-21T02:52:58;80686.00;;;13.70
12007;BMP180;6062;47.294;12.182;2022-08-21T02:55:27;80678.00;;;13.70
12007;BMP180;6062;47.294;12.182;2022-08-21T02:57:56;80682.00;;;13.70
12007;BMP180;6062;47.294;12.182;2022-08-21T03:00:25;80684.00;;;13.70
12007;BMP180;6062;47.294;12.182;2022-08-21T03:02:52;80671.00;;;13.70
12007;BMP180;6062;47.294;12.182;2022-08-21T03:05:19;80679.00;;;13.60
12007;BMP180;6062;47.294;12.182;2022-08-21T03:07:46;80684.00;;;13.60
12007;BMP180;6062;47.294;12.182;2022-08-21T03:10:13;80686.00;;;13.50
12007;BMP180;6062;47.294;12.182;2022-08-21T03:12:39;80683.00;;;13.60
12007;BMP180;6062;47.294;12.182;2022-08-21T03:15:10;80678.00;;;13.50
12007;BMP180;6062;47.294;12.182;2022-08-21T03:17:36;80685.00;;;13.50
12007;BMP180;6062;47.294;12.182;2022-08-21T03:20:05;80675.00;;;13.50
12007;BMP180;6062;47.294;12.182;2022-08-21T03:22:31;80678.00;;;13.60
12007;BMP180;6062;47.294;12.182;2022-08-21T03:24:58;80677.00;;;13.60
12007;BMP180;6062;47.294;12.182;2022-08-21T03:27:27;80676.00;;;13.60
12007;BMP180;6062;47.294;12.182;2022-08-21T03:29:54;80673.00;;;13.60
12007;BMP180;6062;47.294;12.182;2022-08-21T03:32:20;80671.00;;;13.60
12007;BMP180;6062;47.294;12.182;2022-08-21T03:34:47;80675.00;;;13.60
12007;BMP180;6062;47.294;12.182;2022-08-21T03:37:14;80676.00;;;13.60
12007;BMP180;6062;47.294;12.182;2022-08-21T03:39:40;80682.00;;;13.60
12007;BMP180;6062;47.294;12.182;2022-08-21T03:42:07;80679.00;;;13.50
12007;BMP180;6062;47.294;12.182;2022-08-21T03:44:34;80675.00;;;13.50
12007;BMP180;6062;47.294;12.182;2022-08-21T03:47:00;80683.00;;;13.50
12007;BMP180;6062;47.294;12.182;2022-08-21T03:49:27;80681.00;;;13.50
12007;BMP180;6062;47.294;12.182;2022-08-21T03:51:52;80678.00;;;13.40
12007;BMP180;6062;47.294;12.182;2022-08-21T03:54:19;80685.00;;;13.50
12007;BMP180;6062;47.294;12.182;2022-08-21T03:56:45;80687.00;;;13.50
12007;BMP180;6062;47.294;12.182;2022-08-21T03:59:11;80685.00;;;13.40
12007;BMP180;6062;47.294;12.182;2022-08-21T04:01:36;80684.00;;;13.40
12007;BMP180;6062;47.294;12.182;2022-08-21T04:04:04;80689.00;;;13.40
12007;BMP180;6062;47.294;12.182;2022-08-21T04:06:30;80692.00;;;13.50
12007;BMP180;6062;47.294;12.182;2022-08-21T04:08:55;80688.00;;;13.40
12007;BMP180;6062;47.294;12.182;2022-08-21T04:11:21;80685.00;;;13.40
12007;BMP180;6062;47.294;12.182;2022-08-21T04:13:47;80693.00;;;13.40
12007;BMP180;6062;47.294;12.182;2022-08-21T04:16:14;80690.00;;;13.40
12007;BMP180;6062;47.294;12.182;2022-08-21T04:18:40;80686.00;;;13.40
12007;BMP180;6062;47.294;12.182;2022-08-21T04:21:09;80691.00;;;13.40
12007;BMP180;6062;47.294;12.182;2022-08-21T04:23:36;80686.00;;;13.40
12007;BMP180;6062;47.294;12.182;2022-08-21T04:26:03;80686.00;;;13.50
12007;BMP180;6062;47.294;12.182;2022-08-21T04:28:29;80681.00;;;13.50
12007;BMP180;6062;47.294;12.182;2022-08-21T04:30:55;80693.00;;;13.50
12007;BMP180;6062;47.294;12.182;2022-08-21T04:33:22;80688.00;;;13.50
12007;BMP180;6062;47.294;12.182;2022-08-21T04:35:49;80683.00;;;13.50
12007;BMP180;6062;47.294;12.182;2022-08-21T04:38:16;80697.00;;;13.50
12007;BMP180;6062;47.294;12.182;2022-08-21T04:40:42;80696.00;;;13.50
12007;BMP180;6062;47.294;12.182;2022-08-21T04:43:10;80699.00;;;13.50
12007;BMP180;6062;47.294;12.182;2022-08-21T04:45:43;80697.00;;;13.50
12007;BMP180;6062;47.294;12.182;2022-08-21T04:48:12;80696.00;;;13.50
12007;BMP180;6062;47.294;12.182;2022-08-21T04:56:37;80699.00;;;13.40
12007;BMP180;6062;47.294;12.182;2022-08-21T04:59:11;80697.00;;;13.50
12007;BMP180;6062;47.294;12.182;2022-08-21T05:01:40;80692.00;;;13.50
12007;BMP180;6062;47.294;12.182;2022-08-21T05:04:09;80699.00;;;13.50
12007;BMP180;6062;47.294;12.182;2022-08-21T05:06:40;80704.00;;;13.50
12007;BMP180;6062;47.294;12.182;2022-08-21T05:09:07;80697.00;;;13.40
12007;BMP180;6062;47.294;12.182;2022-08-21T05:11:35;80713.00;;;13.40
12007;BMP180;6062;47.294;12.182;2022-08-21T05:14:02;80709.00;;;13.40
12007;BMP180;6062;47.294;12.182;2022-08-21T05:16:28;80710.00;;;13.40
12007;BMP180;6062;47.294;12.182;2022-08-21T05:18:54;80702.00;;;13.50
12007;BMP180;6062;47.294;12.182;2022-08-21T05:21:20;80702.00;;;13.50
12007;BMP180;6062;47.294;12.182;2022-08-21T05:23:46;80695.00;;;13.50
12007;BMP180;6062;47.294;12.182;2022-08-21T05:26:12;80709.00;;;13.60
12007;BMP180;6062;47.294;12.182;2022-08-21T05:28:38;80711.00;;;13.60
12007;BMP180;6062;47.294;12.182;2022-08-21T05:31:04;80714.00;;;13.70
12007;BMP180;6062;47.294;12.182;2022-08-21T05:33:29;80715.00;;;13.70
12007;BMP180;6062;47.294;12.182;2022-08-21T05:35:55;80712.00;;;13.80
12007;BMP180;6062;47.294;12.182;2022-08-21T05:38:24;80718.00;;;13.80
12007;BMP180;6062;47.294;12.182;2022-08-21T05:40:49;80712.00;;;13.90
12007;BMP180;6062;47.294;12.182;2022-08-21T05:43:15;80714.00;;;13.90
12007;BMP180;6062;47.294;12.182;2022-08-21T05:45:42;80721.00;;;14.00
12007;BMP180;6062;47.294;12.182;2022-08-21T05:48:11;80716.00;;;14.00
12007;BMP180;6062;47.294;12.182;2022-08-21T05:50:37;80719.00;;;14.00
12007;BMP180;6062;47.294;12.182;2022-08-21T05:53:04;80725.00;;;14.10
12007;BMP180;6062;47.294;12.182;2022-08-21T05:55:30;80724.00;;;14.10
12007;BMP180;6062;47.294;12.182;2022-08-21T05:57:56;80724.00;;;14.10
12007;BMP180;6062;47.294;12.182;2022-08-21T06:00:22;80722.00;;;14.10
12007;BMP180;6062;47.294;12.182;2022-08-21T06:02:49;80727.00;;;14.10
12007;BMP180;6062;47.294;12.182;2022-08-21T06:05:17;80728.00;;;14.10
12007;BMP180;6062;47.294;12.182;2022-08-21T06:07:43;80726.00;;;14.20
12007;BMP180;6062;47.294;12.182;2022-08-21T06:10:09;80725.00;;;14.20
12007;BMP180;6062;47.294;12.182;2022-08-21T06:12:35;80731.00;;;14.20
12007;BMP180;6062;47.294;12.182;2022-08-21T06:15:01;80733.00;;;14.20
12007;BMP180;6062;47.294;12.182;2022-08-21T06:17:26;80729.00;;;14.20
12007;BMP180;6062;47.294;12.182;2022-08-21T06:19:53;80727.00;;;14.20
12007;BMP180;6062;47.294;12.182;2022-08-21T06:22:20;80734.00;;;14.20
12007;BMP180;6062;47.294;12.182;2022-08-21T06:24:46;80730.00;;;14.20
12007;BMP180;6062;47.294;12.182;2022-08-21T06:27:12;80732.00;;;14.20
12007;BMP180;6062;47.294;12.182;2022-08-21T06:29:38;80739.00;;;14.10
12007;BMP180;6062;47.294;12.182;2022-08-21T06:32:05;80736.00;;;14.10
12007;BMP180;6062;47.294;12.182;2022-08-21T06:34:37;80733.00;;;14.10
12007;BMP180;6062;47.294;12.182;2022-08-21T06:37:07;80734.00;;;14.10
12007;BMP180;6062;47.294;12.182;2022-08-21T06:39:33;80726.00;;;14.10
12007;BMP180;6062;47.294;12.182;2022-08-21T06:41:59;80730.00;;;14.10
12007;BMP180;6062;47.294;12.182;2022-08-21T06:44:25;80730.00;;;14.20
12007;BMP180;6062;47.294;12.182;2022-08-21T06:46:51;80728.00;;;14.20
12007;BMP180;6062;47.294;12.182;2022-08-21T06:49:17;80727.00;;;14.20
12007;BMP180;6062;47.294;12.182;2022-08-21T06:51:42;80721.00;;;14.30
12007;BMP180;6062;47.294;12.182;2022-08-21T06:54:08;80732.00;;;14.50
12007;BMP180;6062;47.294;12.182;2022-08-21T06:56:34;80729.00;;;14.60
12007;BMP180;6062;47.294;12.182;2022-08-21T06:59:04;80729.00;;;14.80
12007;BMP180;6062;47.294;12.182;2022-08-21T07:01:31;80723.00;;;15.30
12007;BMP180;6062;47.294;12.182;2022-08-21T07:03:58;80732.00;;;16.40
12007;BMP180;6062;47.294;12.182;2022-08-21T07:06:24;80731.00;;;17.80
12007;BMP180;6062;47.294;12.182;2022-08-21T07:08:50;80732.00;;;18.90
12007;BMP180;6062;47.294;12.182;2022-08-21T07:11:23;80741.00;;;19.40
12007;BMP180;6062;47.294;12.182;2022-08-21T07:13:50;80727.00;;;19.70
12007;BMP180;6062;47.294;12.182;2022-08-21T07:16:19;80728.00;;;20.50
12007;BMP180;6062;47.294;12.182;2022-08-21T07:18:45;80732.00;;;21.10
12007;BMP180;6062;47.294;12.182;2022-08-21T07:21:11;80734.00;;;21.70
12007;BMP180;6062;47.294;12.182;2022-08-21T07:23:42;80741.00;;;22.60
12007;BMP180;6062;47.294;12.182;2022-08-21T07:26:11;80726.00;;;23.40
12007;BMP180;6062;47.294;12.182;2022-08-21T07:28:36;80731.00;;;23.60
12007;BMP180;6062;47.294;12.182;2022-08-21T07:31:03;80726.00;;;23.60
12007;BMP180;6062;47.294;12.182;2022-08-21T07:33:34;80728.00;;;23.90
12007;BMP180;6062;47.294;12.182;2022-08-21T07:36:00;80724.00;;;24.10
12007;BMP180;6062;47.294;12.182;2022-08-21T07:38:26;80730.00;;;24.20
12007;BMP180;6062;47.294;12.182;2022-08-21T07:40:56;80727.00;;;24.10
12007;BMP180;6062;47.294;12.182;2022-08-21T07:43:24;80718.00;;;24.10
12007;BMP180;6062;47.294;12.182;2022-08-21T07:45:50;80721.00;;;24.10
12007;BMP180;6062;47.294;12.182;2022-08-21T07:48:16;80732.00;;;24.20
12007;BMP180;6062;47.294;12.182;2022-08-21T07:50:43;80731.00;;;24.50
12007;BMP180;6062;47.294;12.182;2022-08-21T07:53:09;80726.00;;;24.50
12007;BMP180;6062;47.294;12.182;2022-08-21T07:55:35;80716.00;;;24.80
12007;BMP180;6062;47.294;12.182;2022-08-21T07:58:01;80718.00;;;25.40
12007;BMP180;6062;47.294;12.182;2022-08-21T08:00:29;80722.00;;;26.10
12007;BMP180;6062;47.294;12.182;2022-08-21T08:02:55;80722.00;;;26.90
12007;BMP180;6062;47.294;12.182;2022-08-21T08:05:26;80729.00;;;27.40
12007;BMP180;6062;47.294;12.182;2022-08-21T08:07:52;80723.00;;;27.90
12007;BMP180;6062;47.294;12.182;2022-08-21T08:10:19;80729.00;;;28.60
12007;BMP180;6062;47.294;12.182;2022-08-21T08:12:45;80731.00;;;29.50
12007;BMP180;6062;47.294;12.182;2022-08-21T08:15:19;80725.00;;;30.30
12007;BMP180;6062;47.294;12.182;2022-08-21T08:17:45;80722.00;;;31.20
12007;BMP180;6062;47.294;12.182;2022-08-21T08:20:13;80728.00;;;32.10
12007;BMP180;6062;47.294;12.182;2022-08-21T08:22:39;80718.00;;;32.80
12007;BMP180;6062;47.294;12.182;2022-08-21T08:25:09;80729.00;;;33.10
12007;BMP180;6062;47.294;12.182;2022-08-21T08:27:36;80722.00;;;33.40
12007;BMP180;6062;47.294;12.182;2022-08-21T08:30:03;80726.00;;;33.80
12007;BMP180;6062;47.294;12.182;2022-08-21T08:32:29;80720.00;;;34.00
12007;BMP180;6062;47.294;12.182;2022-08-21T08:34:54;80716.00;;;33.70
12007;BMP180;6062;47.294;12.182;2022-08-21T08:37:21;80715.00;;;33.40
12007;BMP180;6062;47.294;12.182;2022-08-21T08:39:47;80716.00;;;33.10
12007;BMP180;6062;47.294;12.182;2022-08-21T08:42:29;80718.00;;;32.50
12007;BMP180;6062;47.294;12.182;2022-08-21T08:45:02;80719.00;;;31.90
12007;BMP180;6062;47.294;12.182;2022-08-21T08:47:31;80726.00;;;31.50
12007;BMP180;6062;47.294;12.182;2022-08-21T08:50:17;80721.00;;;30.70
12007;BMP180;6062;47.294;12.182;2022-08-21T08:53:03;80724.00;;;29.60
12007;BMP180;6062;47.294;12.182;2022-08-21T08:55:38;80727.00;;;28.60
12007;BMP180;6062;47.294;12.182;2022-08-21T08:58:05;80721.00;;;28.00
12007;BMP180;6062;47.294;12.182;2022-08-21T09:00:32;80725.00;;;27.50
12007;BMP180;6062;47.294;12.182;2022-08-21T09:03:01;80723.00;;;26.90
12007;BMP180;6062;47.294;12.182;2022-08-21T09:05:30;80728.00;;;26.50
12007;BMP180;6062;47.294;12.182;2022-08-21T09:08:31;80719.00;;;26.10
12007;BMP180;6062;47.294;12.182;2022-08-21T09:23:28;80715.00;;;23.90
12007;BMP180;6062;47.294;12.182;2022-08-21T09:26:16;80718.00;;;23.90
12007;BMP180;6062;47.294;12.182;2022-08-21T09:28:44;80718.00;;;24.00
12007;BMP180;6062;47.294;12.182;2022-08-21T09:31:29;80711.00;;;24.10
12007;BMP180;6062;47.294;12.182;2022-08-21T09:34:07;80714.00;;;24.00
12007;BMP180;6062;47.294;12.182;2022-08-21T09:36:43;80714.00;;;23.60
12007;BMP180;6062;47.294;12.182;2022-08-21T09:39:12;80722.00;;;23.00
12007;BMP180;6062;47.294;12.182;2022-08-21T09:41:39;80710.00;;;22.60
12007;BMP180;6062;47.294;12.182;2022-08-21T09:44:08;80720.00;;;22.30
12007;BMP180;6062;47.294;12.182;2022-08-21T09:46:34;80708.00;;;22.10
12007;BMP180;6062;47.294;12.182;2022-08-21T09:49:03;80705.00;;;21.70
12007;BMP180;6062;47.294;12.182;2022-08-21T09:51:33;80707.00;;;21.20
12007;BMP180;6062;47.294;12.182;2022-08-21T09:56:37;80713.00;;;20.20
12007;BMP180;6062;47.294;12.182;2022-08-21T09:59:31;80713.00;;;20.00
12007;BMP180;6062;47.294;12.182;2022-08-21T10:02:01;80711.00;;;20.00
12007;BMP180;6062;47.294;12.182;2022-08-21T10:04:35;80713.00;;;20.00
12007;BMP180;6062;47.294;12.182;2022-08-21T10:07:14;80718.00;;;20.30
12007;BMP180;6062;47.294;12.182;2022-08-21T10:09:41;80712.00;;;20.50
12007;BMP180;6062;47.294;12.182;2022-08-21T10:12:19;80714.00;;;20.70
12007;BMP180;6062;47.294;12.182;2022-08-21T10:15:15;80713.00;;;20.90
12007;BMP180;6062;47.294;12.182;2022-08-21T10:17:57;80717.00;;;21.10
12007;BMP180;6062;47.294;12.182;2022-08-21T10:20:40;80721.00;;;20.90
12007;BMP180;6062;47.294;12.182;2022-08-21T10:30:09;80708.00;;;20.00
12007;BMP180;6062;47.294;12.182;2022-08-21T10:32:55;80707.00;;;19.90
12007;BMP180;6062;47.294;12.182;2022-08-21T10:35:31;80723.00;;;19.80
12007;BMP180;6062;47.294;12.182;2022-08-21T10:41:31;80719.00;;;19.60
12007;BMP180;6062;47.294;12.182;2022-08-21T10:53:01;80721.00;;;18.80
12007;BMP180;6062;47.294;12.182;2022-08-21T10:55:44;80720.00;;;18.60
12007;BMP180;6062;47.294;12.182;2022-08-21T10:58:37;80724.00;;;18.60
12007;BMP180;6062;47.294;12.182;2022-08-21T11:01:49;80725.00;;;18.60
12007;BMP180;6062;47.294;12.182;2022-08-21T11:04:34;80722.00;;;18.50
12007;BMP180;6062;47.294;12.182;2022-08-21T11:07:44;80727.00;;;18.30
12007;BMP180;6062;47.294;12.182;2022-08-21T11:10:30;80718.00;;;18.10
12007;BMP180;6062;47.294;12.182;2022-08-21T11:13:22;80721.00;;;18.00
12007;BMP180;6062;47.294;12.182;2022-08-21T11:16:33;80716.00;;;17.90
12007;BMP180;6062;47.294;12.182;2022-08-21T11:19:11;80715.00;;;18.00
12007;BMP180;6062;47.294;12.182;2022-08-21T11:22:21;80723.00;;;18.20
12007;BMP180;6062;47.294;12.182;2022-08-21T11:25:18;80722.00;;;18.30
12007;BMP180;6062;47.294;12.182;2022-08-21T11:27:54;80715.00;;;18.30
12007;BMP180;6062;47.294;12.182;2022-08-21T11:30:32;80713.00;;;18.30
12007;BMP180;6062;47.294;12.182;2022-08-21T11:39:10;80708.00;;;18.40
12007;BMP180;6062;47.294;12.182;2022-08-21T11:41:52;80708.00;;;18.30
12007;BMP180;6062;47.294;12.182;2022-08-21T11:44:34;80714.00;;;18.20
12007;BMP180;6062;47.294;12.182;2022-08-21T11:50:18;80709.00;;;17.70
12007;BMP180;6062;47.294;12.182;2022-08-21T11:53:07;80712.00;;;17.50
12007;BMP180;6062;47.294;12.182;2022-08-21T11:55:44;80707.00;;;17.60
12007;BMP180;6062;47.294;12.182;2022-08-21T11:58:20;80704.00;;;17.70
12007;BMP180;6062;47.294;12.182;2022-08-21T12:01:04;80700.00;;;17.80
12007;BMP180;6062;47.294;12.182;2022-08-21T12:03:39;80703.00;;;17.90
12007;BMP180;6062;47.294;12.182;2022-08-21T12:06:13;80701.00;;;18.10
12007;BMP180;6062;47.294;12.182;2022-08-21T12:08:44;80704.00;;;18.30
12007;BMP180;6062;47.294;12.182;2022-08-21T12:11:25;80693.00;;;18.70
12007;BMP180;6062;47.294;12.182;2022-08-21T12:16:39;80696.00;;;19.40
12007;BMP180;6062;47.294;12.182;2022-08-21T12:21:59;80692.00;;;19.70
12007;BMP180;6062;47.294;12.182;2022-08-21T12:26:58;80692.00;;;19.90
12007;BMP180;6062;47.294;12.182;2022-08-21T12:29:37;80692.00;;;20.00
12007;BMP180;6062;47.294;12.182;2022-08-21T12:34:44;80688.00;;;20.20
12007;BMP180;6062;47.294;12.182;2022-08-21T12:37:38;80687.00;;;20.20
12007;BMP180;6062;47.294;12.182;2022-08-21T12:40:31;80682.00;;;20.00
12007;BMP180;6062;47.294;12.182;2022-08-21T12:43:00;80685.00;;;19.70
12007;BMP180;6062;47.294;12.182;2022-08-21T12:45:33;80684.00;;;19.50
12007;BMP180;6062;47.294;12.182;2022-08-21T12:48:09;80675.00;;;19.30
12007;BMP180;6062;47.294;12.182;2022-08-21T12:50:44;80673.00;;;19.00
12007;BMP180;6062;47.294;12.182;2022-08-21T12:56:15;80665.00;;;18.60
12007;BMP180;6062;47.294;12.182;2022-08-21T12:58:55;80663.00;;;18.40
12007;BMP180;6062;47.294;12.182;2022-08-21T13:01:31;80666.00;;;18.20
12007;BMP180;6062;47.294;12.182;2022-08-21T13:04:06;80660.00;;;18.00
12007;BMP180;6062;47.294;12.182;2022-08-21T13:06:40;80665.00;;;17.80
12007;BMP180;6062;47.294;12.182;2022-08-21T13:09:12;80654.00;;;17.80
12007;BMP180;6062;47.294;12.182;2022-08-21T13:11:42;80647.00;;;17.90
12007;BMP180;6062;47.294;12.182;2022-08-21T13:14:38;80656.00;;;18.00
12007;BMP180;6062;47.294;12.182;2022-08-21T13:17:07;80645.00;;;18.00
12007;BMP180;6062;47.294;12.182;2022-08-21T13:19:34;80652.00;;;17.90
12007;BMP180;6062;47.294;12.182;2022-08-21T13:22:01;80652.00;;;17.90
12007;BMP180;6062;47.294;12.182;2022-08-21T13:24:34;80652.00;;;17.90
12007;BMP180;6062;47.294;12.182;2022-08-21T13:27:00;80650.00;;;17.80
12007;BMP180;6062;47.294;12.182;2022-08-21T13:29:33;80654.00;;;17.60
12007;BMP180;6062;47.294;12.182;2022-08-21T13:32:05;80646.00;;;17.40
12007;BMP180;6062;47.294;12.182;2022-08-21T13:34:37;80648.00;;;17.40
12007;BMP180;6062;47.294;12.182;2022-08-21T13:37:07;80652.00;;;17.30
12007;BMP180;6062;47.294;12.182;2022-08-21T13:39:34;80646.00;;;17.30
12007;BMP180;6062;47.294;12.182;2022-08-21T13:42:04;80635.00;;;17.40
12007;BMP180;6062;47.294;12.182;2022-08-21T13:44:40;80638.00;;;17.50
12007;BMP180;6062;47.294;12.182;2022-08-21T13:47:09;80644.00;;;17.70
12007;BMP180;6062;47.294;12.182;2022-08-21T13:49:41;80636.00;;;17.80
12007;BMP180;6062;47.294;12.182;2022-08-21T13:52:24;80646.00;;;17.80
12007;BMP180;6062;47.294;12.182;2022-08-21T13:55:09;80647.00;;;17.80
12007;BMP180;6062;47.294;12.182;2022-08-21T13:57:37;80636.00;;;17.70
12007;BMP180;6062;47.294;12.182;2022-08-21T14:00:31;80647.00;;;17.70
12007;BMP180;6062;47.294;12.182;2022-08-21T14:03:09;80655.00;;;17.70
12007;BMP180;6062;47.294;12.182;2022-08-21T14:05:44;80650.00;;;17.80
12007;BMP180;6062;47.294;12.182;2022-08-21T14:08:33;80642.00;;;17.80
12007;BMP180;6062;47.294;12.182;2022-08-21T14:11:00;80653.00;;;17.80
12007;BMP180;6062;47.294;12.182;2022-08-21T14:13:43;80645.00;;;17.90
12007;BMP180;6062;47.294;12.182;2022-08-21T14:16:22;80643.00;;;17.80
12007;BMP180;6062;47.294;12.182;2022-08-21T14:19:19;80638.00;;;17.60
12007;BMP180;6062;47.294;12.182;2022-08-21T14:21:45;80640.00;;;17.60
12007;BMP180;6062;47.294;12.182;2022-08-21T14:24:30;80635.00;;;17.60
12007;BMP180;6062;47.294;12.182;2022-08-21T14:27:07;80640.00;;;17.70
12007;BMP180;6062;47.294;12.182;2022-08-21T14:29:38;80631.00;;;17.70
12007;BMP180;6062;47.294;12.182;2022-08-21T14:32:18;80636.00;;;17.80
12007;BMP180;6062;47.294;12.182;2022-08-21T14:34:45;80636.00;;;17.90
12007;BMP180;6062;47.294;12.182;2022-08-21T14:37:11;80634.00;;;18.00
12007;BMP180;6062;47.294;12.182;2022-08-21T14:39:37;80628.00;;;18.10
12007;BMP180;6062;47.294;12.182;2022-08-21T14:42:03;80631.00;;;18.20
12007;BMP180;6062;47.294;12.182;2022-08-21T14:44:29;80632.00;;;18.30
12007;BMP180;6062;47.294;12.182;2022-08-21T14:46:55;80638.00;;;18.40
12007;BMP180;6062;47.294;12.182;2022-08-21T14:49:24;80636.00;;;18.60
12007;BMP180;6062;47.294;12.182;2022-08-21T14:51:51;80626.00;;;18.70
12007;BMP180;6062;47.294;12.182;2022-08-21T14:54:26;80632.00;;;18.80
12007;BMP180;6062;47.294;12.182;2022-08-21T14:56:52;80628.00;;;18.90
12007;BMP180;6062;47.294;12.182;2022-08-21T14:59:20;80632.00;;;18.90
12007;BMP180;6062;47.294;12.182;2022-08-21T15:01:47;80635.00;;;18.90
12007;BMP180;6062;47.294;12.182;2022-08-21T15:04:13;80633.00;;;18.90
12007;BMP180;6062;47.294;12.182;2022-08-21T15:06:39;80627.00;;;18.90
12007;BMP180;6062;47.294;12.182;2022-08-21T15:09:05;80628.00;;;18.90
12007;BMP180;6062;47.294;12.182;2022-08-21T15:11:33;80635.00;;;18.90
12007;BMP180;6062;47.294;12.182;2022-08-21T15:14:06;80628.00;;;18.90
12007;BMP180;6062;47.294;12.182;2022-08-21T15:16:33;80634.00;;;18.90
12007;BMP180;6062;47.294;12.182;2022-08-21T15:19:00;80628.00;;;18.90
12007;BMP180;6062;47.294;12.182;2022-08-21T15:21:26;80627.00;;;18.90
12007;BMP180;6062;47.294;12.182;2022-08-21T15:23:51;80632.00;;;18.90
12007;BMP180;6062;47.294;12.182;2022-08-21T15:26:23;80631.00;;;18.90
12007;BMP180;6062;47.294;12.182;2022-08-21T15:28:49;80632.00;;;18.90
12007;BMP180;6062;47.294;12.182;2022-08-21T15:31:15;80634.00;;;18.90
12007;BMP180;6062;47.294;12.182;2022-08-21T15:33:40;80628.00;;;18.90